sensor_id;sensor_type;location;lat;lon;timestamp;P1;durP1;ratioP1;P2;durP2;ratioP2
13202;SDS011;6666;51.626;7.530;2024-03-23T00:54:15;12.00;;;3.67;;
13202;SDS011;6666;51.626;7.530;2024-03-23T00:56:41;13.87;;;3.47;;
13202;SDS011;6666;51.626;7.530;2024-03-23T00:59:08;17.50;;;3.80;;
13202;SDS011;6666;51.626;7.530;2024-03-23T01:01:35;10.18;;;3.00;;
13202;SDS011;6666;51.626;7.530;2024-03-23T01:04:02;12.23;;;3.80;;
13202;SDS011;6666;51.626;7.530;2024-03-23T01:06:30;15.25;;;4.20;;
13202;SDS011;6666;51.626;7.530;2024-03-23T01:08:57;13.05;;;4.05;;
13202;SDS011;6666;51.626;7.530;2024-03-23T01:11:24;13.10;;;3.80;;
13202;SDS011;6666;51.626;7.530;2024-03-23T01:13:53;16.38;;;4.40;;
13202;SDS011;6666;51.626;7.530;2024-03-23T01:16:21;14.10;;;3.77;;
13202;SDS011;6666;51.626;7.530;2024-03-23T01:18:48;17.80;;;3.90;;
13202;SDS011;6666;51.626;7.530;2024-03-23T01:21:14;18.17;;;4.10;;
13202;SDS011;6666;51.626;7.530;2024-03-23T01:23:42;18.42;;;4.10;;
13202;SDS011;6666;51.626;7.530;2024-03-23T01:26:08;11.70;;;4.22;;
13202;SDS011;6666;51.626;7.530;2024-03-23T01:28:37;11.60;;;3.58;;
13202;SDS011;6666;51.626;7.530;2024-03-23T01:31:03;13.70;;;3.60;;
13202;SDS011;6666;51.626;7.530;2024-03-23T01:33:34;12.40;;;3.53;;
13202;SDS011;6666;51.626;7.530;2024-03-23T01:36:00;12.35;;;3.70;;
13202;SDS011;6666;51.626;7.530;2024-03-23T01:38:27;17.30;;;4.73;;
13202;SDS011;6666;51.626;7.530;2024-03-23T01:40:56;18.40;;;4.60;;
13202;SDS011;6666;51.626;7.530;2024-03-23T01:43:23;16.37;;;4.30;;
13202;SDS011;6666;51.626;7.530;2024-03-23T01:45:51;19.83;;;3.63;;
13202;SDS011;6666;51.626;7.530;2024-03-23T01:48:19;14.32;;;4.00;;
13202;SDS011;6666;51.626;7.530;2024-03-23T01:50:46;13.95;;;3.85;;
13202;SDS011;6666;51.626;7.530;2024-03-23T01:53:13;13.27;;;4.00;;
13202;SDS011;6666;51.626;7.530;2024-03-23T01:55:42;11.70;;;3.42;;
13202;SDS011;6666;51.626;7.530;2024-03-23T01:58:10;12.13;;;3.50;;
13202;SDS011;6666;51.626;7.530;2024-03-23T02:00:36;13.57;;;3.50;;
13202;SDS011;6666;51.626;7.530;2024-03-23T02:03:15;11.93;;;3.63;;
13202;SDS011;6666;51.626;7.530;2024-03-23T02:05:48;12.05;;;3.42;;
13202;SDS011;6666;51.626;7.530;2024-03-23T02:08:16;13.77;;;3.63;;
13202;SDS011;6666;51.626;7.530;2024-03-23T02:10:43;11.47;;;3.23;;
13202;SDS011;6666;51.626;7.530;2024-03-23T02:13:10;11.37;;;3.10;;
13202;SDS011;6666;51.626;7.530;2024-03-23T02:15:37;18.15;;;4.10;;
13202;SDS011;6666;51.626;7.530;2024-03-23T02:18:06;15.20;;;3.10;;
13202;SDS011;6666;51.626;7.530;2024-03-23T02:20:35;14.48;;;3.88;;
13202;SDS011;6666;51.626;7.530;2024-03-23T02:23:04;9.25;;;3.50;;
13202;SDS011;6666;51.626;7.530;2024-03-23T02:25:31;11.20;;;3.00;;
13202;SDS011;6666;51.626;7.530;2024-03-23T02:27:59;6.45;;;3.00;;
13202;SDS011;6666;51.626;7.530;2024-03-23T02:30:25;7.27;;;2.77;;
13202;SDS011;6666;51.626;7.530;2024-03-23T02:32:53;8.00;;;2.70;;
13202;SDS011;6666;51.626;7.530;2024-03-23T02:35:19;9.68;;;2.90;;
13202;SDS011;6666;51.626;7.530;2024-03-23T02:37:46;12.20;;;3.30;;
13202;SDS011;6666;51.626;7.530;2024-03-23T02:40:15;8.73;;;3.10;;
13202;SDS011;6666;51.626;7.530;2024-03-23T02:42:42;12.93;;;2.75;;
13202;SDS011;6666;51.626;7.530;2024-03-23T02:45:09;9.90;;;2.70;;
13202;SDS011;6666;51.626;7.530;2024-03-23T02:47:36;6.38;;;2.58;;
13202;SDS011;6666;51.626;7.530;2024-03-23T02:50:02;12.85;;;3.00;;
13202;SDS011;6666;51.626;7.530;2024-03-23T02:52:30;9.63;;;2.70;;
13202;SDS011;6666;51.626;7.530;2024-03-23T02:54:57;16.13;;;3.10;;
13202;SDS011;6666;51.626;7.530;2024-03-23T02:57:25;10.02;;;3.50;;
13202;SDS011;6666;51.626;7.530;2024-03-23T02:59:51;11.43;;;3.07;;
13202;SDS011;6666;51.626;7.530;2024-03-23T03:02:19;8.48;;;3.10;;
13202;SDS011;6666;51.626;7.530;2024-03-23T03:04:46;10.30;;;2.77;;
13202;SDS011;6666;51.626;7.530;2024-03-23T03:07:13;12.93;;;2.92;;
13202;SDS011;6666;51.626;7.530;2024-03-23T03:09:40;10.35;;;3.00;;
13202;SDS011;6666;51.626;7.530;2024-03-23T03:12:07;19.98;;;3.90;;
13202;SDS011;6666;51.626;7.530;2024-03-23T03:14:35;8.82;;;2.60;;
13202;SDS011;6666;51.626;7.530;2024-03-23T03:17:02;7.88;;;3.10;;
13202;SDS011;6666;51.626;7.530;2024-03-23T03:19:29;14.68;;;3.78;;
13202;SDS011;6666;51.626;7.530;2024-03-23T03:21:58;13.45;;;3.40;;
13202;SDS011;6666;51.626;7.530;2024-03-23T03:24:24;9.02;;;3.50;;
13202;SDS011;6666;51.626;7.530;2024-03-23T03:26:51;10.00;;;3.00;;
13202;SDS011;6666;51.626;7.530;2024-03-23T03:29:18;12.88;;;2.97;;
13202;SDS011;6666;51.626;7.530;2024-03-23T03:31:46;11.20;;;3.40;;
13202;SDS011;6666;51.626;7.530;2024-03-23T03:34:12;9.73;;;3.42;;
13202;SDS011;6666;51.626;7.530;2024-03-23T03:36:39;14.25;;;3.38;;
13202;SDS011;6666;51.626;7.530;2024-03-23T03:39:06;11.02;;;3.20;;
13202;SDS011;6666;51.626;7.530;2024-03-23T03:41:33;13.15;;;3.40;;
13202;SDS011;6666;51.626;7.530;2024-03-23T03:43:59;9.45;;;3.00;;
13202;SDS011;6666;51.626;7.530;2024-03-23T03:46:31;11.88;;;3.08;;
13202;SDS011;6666;51.626;7.530;2024-03-23T03:48:58;9.77;;;2.65;;
13202;SDS011;6666;51.626;7.530;2024-03-23T03:51:25;10.93;;;2.88;;
13202;SDS011;6666;51.626;7.530;2024-03-23T03:53:52;9.48;;;3.10;;
13202;SDS011;6666;51.626;7.530;2024-03-23T03:56:19;11.27;;;3.03;;
13202;SDS011;6666;51.626;7.530;2024-03-23T03:58:45;12.07;;;3.10;;
13202;SDS011;6666;51.626;7.530;2024-03-23T04:01:12;12.95;;;3.83;;
13202;SDS011;6666;51.626;7.530;2024-03-23T04:03:38;7.88;;;2.90;;
13202;SDS011;6666;51.626;7.530;2024-03-23T04:06:10;16.13;;;3.22;;
13202;SDS011;6666;51.626;7.530;2024-03-23T04:08:36;13.50;;;3.17;;
13202;SDS011;6666;51.626;7.530;2024-03-23T04:11:03;9.32;;;2.85;;
13202;SDS011;6666;51.626;7.530;2024-03-23T04:13:29;11.30;;;2.70;;
13202;SDS011;6666;51.626;7.530;2024-03-23T04:15:57;15.07;;;3.53;;
13202;SDS011;6666;51.626;7.530;2024-03-23T04:18:24;15.10;;;3.15;;
13202;SDS011;6666;51.626;7.530;2024-03-23T04:20:51;10.98;;;2.80;;
13202;SDS011;6666;51.626;7.530;2024-03-23T04:23:18;14.23;;;3.13;;
13202;SDS011;6666;51.626;7.530;2024-03-23T04:25:46;10.93;;;3.08;;
13202;SDS011;6666;51.626;7.530;2024-03-23T04:28:12;9.98;;;2.95;;
13202;SDS011;6666;51.626;7.530;2024-03-23T04:30:39;14.40;;;3.23;;
13202;SDS011;6666;51.626;7.530;2024-03-23T04:33:06;11.83;;;3.10;;
13202;SDS011;6666;51.626;7.530;2024-03-23T04:35:33;14.07;;;3.33;;
13202;SDS011;6666;51.626;7.530;2024-03-23T04:37:59;13.70;;;3.63;;
13202;SDS011;6666;51.626;7.530;2024-03-23T04:40:27;13.15;;;3.50;;
13202;SDS011;6666;51.626;7.530;2024-03-23T04:42:55;15.77;;;3.45;;
13202;SDS011;6666;51.626;7.530;2024-03-23T04:45:22;16.92;;;3.22;;
13202;SDS011;6666;51.626;7.530;2024-03-23T04:47:49;11.15;;;3.85;;
13202;SDS011;6666;51.626;7.530;2024-03-23T04:50:16;13.68;;;3.10;;
13202;SDS011;6666;51.626;7.530;2024-03-23T04:52:43;13.25;;;4.07;;
13202;SDS011;6666;51.626;7.530;2024-03-23T04:55:11;11.55;;;3.38;;
13202;SDS011;6666;51.626;7.530;2024-03-23T04:57:38;16.08;;;4.05;;
13202;SDS011;6666;51.626;7.530;2024-03-23T05:00:06;14.73;;;3.83;;
13202;SDS011;6666;51.626;7.530;2024-03-23T05:02:42;11.32;;;3.80;;
13202;SDS011;6666;51.626;7.530;2024-03-23T05:05:10;12.23;;;3.65;;
13202;SDS011;6666;51.626;7.530;2024-03-23T05:07:37;11.55;;;3.47;;
13202;SDS011;6666;51.626;7.530;2024-03-23T05:10:05;8.68;;;2.83;;
13202;SDS011;6666;51.626;7.530;2024-03-23T05:12:33;10.38;;;3.00;;
13202;SDS011;6666;51.626;7.530;2024-03-23T05:15:02;10.32;;;3.15;;
13202;SDS011;6666;51.626;7.530;2024-03-23T05:17:29;16.40;;;3.67;;
13202;SDS011;6666;51.626;7.530;2024-03-23T05:19:56;13.10;;;3.40;;
13202;SDS011;6666;51.626;7.530;2024-03-23T05:22:22;8.15;;;3.20;;
13202;SDS011;6666;51.626;7.530;2024-03-23T05:24:50;9.68;;;2.85;;
13202;SDS011;6666;51.626;7.530;2024-03-23T05:27:16;10.35;;;3.30;;
13202;SDS011;6666;51.626;7.530;2024-03-23T05:29:43;10.65;;;3.47;;
13202;SDS011;6666;51.626;7.530;2024-03-23T05:32:10;8.90;;;3.05;;
13202;SDS011;6666;51.626;7.530;2024-03-23T05:34:38;13.40;;;4.25;;
13202;SDS011;6666;51.626;7.530;2024-03-23T05:37:04;12.50;;;3.87;;
13202;SDS011;6666;51.626;7.530;2024-03-23T05:39:32;9.55;;;3.65;;
13202;SDS011;6666;51.626;7.530;2024-03-23T05:41:58;13.93;;;4.30;;
13202;SDS011;6666;51.626;7.530;2024-03-23T05:44:25;14.85;;;4.50;;
13202;SDS011;6666;51.626;7.530;2024-03-23T05:46:51;11.98;;;3.80;;
13202;SDS011;6666;51.626;7.530;2024-03-23T05:49:20;15.02;;;4.60;;
13202;SDS011;6666;51.626;7.530;2024-03-23T05:51:46;14.32;;;4.75;;
13202;SDS011;6666;51.626;7.530;2024-03-23T05:54:13;15.98;;;5.70;;
13202;SDS011;6666;51.626;7.530;2024-03-23T05:56:40;15.52;;;5.10;;
13202;SDS011;6666;51.626;7.530;2024-03-23T05:59:07;15.70;;;5.80;;
13202;SDS011;6666;51.626;7.530;2024-03-23T06:01:37;16.75;;;5.97;;
13202;SDS011;6666;51.626;7.530;2024-03-23T06:04:04;13.27;;;6.00;;
13202;SDS011;6666;51.626;7.530;2024-03-23T06:06:32;21.80;;;6.60;;
13202;SDS011;6666;51.626;7.530;2024-03-23T06:08:59;22.08;;;7.03;;
13202;SDS011;6666;51.626;7.530;2024-03-23T06:11:25;16.60;;;7.30;;
13202;SDS011;6666;51.626;7.530;2024-03-23T06:13:53;22.30;;;8.60;;
13202;SDS011;6666;51.626;7.530;2024-03-23T06:16:19;19.00;;;7.63;;
13202;SDS011;6666;51.626;7.530;2024-03-23T06:18:48;19.90;;;8.77;;
13202;SDS011;6666;51.626;7.530;2024-03-23T06:21:15;17.10;;;8.48;;
13202;SDS011;6666;51.626;7.530;2024-03-23T06:23:44;21.17;;;8.98;;
13202;SDS011;6666;51.626;7.530;2024-03-23T06:26:16;22.47;;;9.17;;
13202;SDS011;6666;51.626;7.530;2024-03-23T06:28:42;17.48;;;8.48;;
13202;SDS011;6666;51.626;7.530;2024-03-23T06:31:09;15.77;;;7.38;;
13202;SDS011;6666;51.626;7.530;2024-03-23T06:33:36;18.45;;;7.90;;
13202;SDS011;6666;51.626;7.530;2024-03-23T06:36:04;18.17;;;7.70;;
13202;SDS011;6666;51.626;7.530;2024-03-23T06:38:31;21.08;;;8.15;;
13202;SDS011;6666;51.626;7.530;2024-03-23T06:41:00;15.60;;;7.20;;
13202;SDS011;6666;51.626;7.530;2024-03-23T06:43:28;17.13;;;7.68;;
13202;SDS011;6666;51.626;7.530;2024-03-23T06:45:55;17.90;;;8.20;;
13202;SDS011;6666;51.626;7.530;2024-03-23T06:48:22;21.83;;;8.93;;
13202;SDS011;6666;51.626;7.530;2024-03-23T06:50:49;23.27;;;10.10;;
13202;SDS011;6666;51.626;7.530;2024-03-23T06:53:20;18.17;;;9.27;;
13202;SDS011;6666;51.626;7.530;2024-03-23T06:55:49;23.75;;;11.10;;
13202;SDS011;6666;51.626;7.530;2024-03-23T06:58:17;24.70;;;12.52;;
13202;SDS011;6666;51.626;7.530;2024-03-23T07:00:45;32.00;;;12.48;;
13202;SDS011;6666;51.626;7.530;2024-03-23T07:03:11;24.05;;;12.30;;
13202;SDS011;6666;51.626;7.530;2024-03-23T07:05:39;24.50;;;12.57;;
13202;SDS011;6666;51.626;7.530;2024-03-23T07:08:05;25.20;;;11.98;;
13202;SDS011;6666;51.626;7.530;2024-03-23T07:10:33;18.92;;;10.80;;
13202;SDS011;6666;51.626;7.530;2024-03-23T07:13:01;19.70;;;10.27;;
13202;SDS011;6666;51.626;7.530;2024-03-23T07:15:29;18.65;;;10.50;;
13202;SDS011;6666;51.626;7.530;2024-03-23T07:17:55;23.77;;;10.60;;
13202;SDS011;6666;51.626;7.530;2024-03-23T07:20:23;20.77;;;10.23;;
13202;SDS011;6666;51.626;7.530;2024-03-23T07:22:49;23.67;;;10.45;;
13202;SDS011;6666;51.626;7.530;2024-03-23T07:25:16;18.67;;;10.43;;
13202;SDS011;6666;51.626;7.530;2024-03-23T07:27:42;18.97;;;9.90;;
13202;SDS011;6666;51.626;7.530;2024-03-23T07:30:10;24.47;;;9.93;;
13202;SDS011;6666;51.626;7.530;2024-03-23T07:32:37;19.10;;;9.30;;
13202;SDS011;6666;51.626;7.530;2024-03-23T07:35:05;18.83;;;9.00;;
13202;SDS011;6666;51.626;7.530;2024-03-23T07:37:31;18.60;;;8.40;;
13202;SDS011;6666;51.626;7.530;2024-03-23T07:39:58;17.90;;;8.00;;
13202;SDS011;6666;51.626;7.530;2024-03-23T07:42:25;17.30;;;8.32;;
13202;SDS011;6666;51.626;7.530;2024-03-23T07:44:52;18.20;;;8.30;;
13202;SDS011;6666;51.626;7.530;2024-03-23T07:47:21;16.25;;;7.47;;
13202;SDS011;6666;51.626;7.530;2024-03-23T07:49:49;25.58;;;7.93;;
13202;SDS011;6666;51.626;7.530;2024-03-23T07:52:15;16.90;;;7.20;;
13202;SDS011;6666;51.626;7.530;2024-03-23T07:54:43;15.38;;;7.00;;
13202;SDS011;6666;51.626;7.530;2024-03-23T07:57:09;16.40;;;7.50;;
13202;SDS011;6666;51.626;7.530;2024-03-23T07:59:36;23.15;;;7.53;;
13202;SDS011;6666;51.626;7.530;2024-03-23T08:02:02;17.13;;;7.28;;
13202;SDS011;6666;51.626;7.530;2024-03-23T08:04:30;17.20;;;7.80;;
13202;SDS011;6666;51.626;7.530;2024-03-23T08:06:57;15.52;;;7.28;;
13202;SDS011;6666;51.626;7.530;2024-03-23T08:09:25;15.93;;;6.43;;
13202;SDS011;6666;51.626;7.530;2024-03-23T08:11:51;13.80;;;6.43;;
13202;SDS011;6666;51.626;7.530;2024-03-23T08:14:18;16.33;;;6.05;;
13202;SDS011;6666;51.626;7.530;2024-03-23T08:16:45;14.70;;;5.88;;
13202;SDS011;6666;51.626;7.530;2024-03-23T08:19:14;12.02;;;5.10;;
13202;SDS011;6666;51.626;7.530;2024-03-23T08:21:40;15.68;;;5.75;;
13202;SDS011;6666;51.626;7.530;2024-03-23T08:24:09;13.93;;;5.30;;
13202;SDS011;6666;51.626;7.530;2024-03-23T08:26:35;15.27;;;5.07;;
13202;SDS011;6666;51.626;7.530;2024-03-23T08:29:03;11.90;;;5.50;;
13202;SDS011;6666;51.626;7.530;2024-03-23T08:31:30;11.25;;;4.60;;
13202;SDS011;6666;51.626;7.530;2024-03-23T08:33:57;11.50;;;5.15;;
13202;SDS011;6666;51.626;7.530;2024-03-23T08:36:23;16.75;;;4.80;;
13202;SDS011;6666;51.626;7.530;2024-03-23T08:38:50;15.27;;;5.10;;
13202;SDS011;6666;51.626;7.530;2024-03-23T08:41:20;12.13;;;4.30;;
13202;SDS011;6666;51.626;7.530;2024-03-23T08:43:47;10.52;;;4.07;;
13202;SDS011;6666;51.626;7.530;2024-03-23T08:46:14;15.25;;;5.00;;
13202;SDS011;6666;51.626;7.530;2024-03-23T08:48:43;11.10;;;3.90;;
13202;SDS011;6666;51.626;7.530;2024-03-23T08:51:11;15.50;;;4.70;;
13202;SDS011;6666;51.626;7.530;2024-03-23T08:53:39;17.37;;;5.47;;
13202;SDS011;6666;51.626;7.530;2024-03-23T08:56:06;10.80;;;4.30;;
13202;SDS011;6666;51.626;7.530;2024-03-23T08:58:36;11.25;;;4.30;;
13202;SDS011;6666;51.626;7.530;2024-03-23T09:01:03;16.77;;;3.88;;
13202;SDS011;6666;51.626;7.530;2024-03-23T09:03:32;17.05;;;4.50;;
13202;SDS011;6666;51.626;7.530;2024-03-23T09:05:59;11.70;;;4.13;;
13202;SDS011;6666;51.626;7.530;2024-03-23T09:08:26;14.57;;;4.17;;
13202;SDS011;6666;51.626;7.530;2024-03-23T09:10:53;12.70;;;4.40;;
13202;SDS011;6666;51.626;7.530;2024-03-23T09:13:20;14.88;;;4.25;;
13202;SDS011;6666;51.626;7.530;2024-03-23T09:15:48;11.77;;;4.15;;
13202;SDS011;6666;51.626;7.530;2024-03-23T09:18:16;12.13;;;4.70;;
13202;SDS011;6666;51.626;7.530;2024-03-23T09:20:43;10.45;;;4.00;;
13202;SDS011;6666;51.626;7.530;2024-03-23T09:23:10;13.30;;;3.87;;
13202;SDS011;6666;51.626;7.530;2024-03-23T09:25:36;12.25;;;4.25;;
13202;SDS011;6666;51.626;7.530;2024-03-23T09:28:05;11.23;;;4.00;;
13202;SDS011;6666;51.626;7.530;2024-03-23T09:30:32;11.55;;;4.03;;
13202;SDS011;6666;51.626;7.530;2024-03-23T09:33:02;12.73;;;4.60;;
13202;SDS011;6666;51.626;7.530;2024-03-23T09:35:29;19.88;;;4.10;;
13202;SDS011;6666;51.626;7.530;2024-03-23T09:37:56;11.07;;;3.40;;
13202;SDS011;6666;51.626;7.530;2024-03-23T09:40:23;9.52;;;3.60;;
13202;SDS011;6666;51.626;7.530;2024-03-23T09:42:50;13.07;;;3.92;;
13202;SDS011;6666;51.626;7.530;2024-03-23T09:45:17;10.57;;;3.97;;
13202;SDS011;6666;51.626;7.530;2024-03-23T09:47:47;13.88;;;4.05;;
13202;SDS011;6666;51.626;7.530;2024-03-23T09:50:15;12.57;;;3.80;;
13202;SDS011;6666;51.626;7.530;2024-03-23T09:52:42;11.75;;;3.88;;
13202;SDS011;6666;51.626;7.530;2024-03-23T09:55:11;9.10;;;3.55;;
13202;SDS011;6666;51.626;7.530;2024-03-23T09:57:39;12.55;;;3.63;;
13202;SDS011;6666;51.626;7.530;2024-03-23T10:00:06;12.43;;;3.30;;
13202;SDS011;6666;51.626;7.530;2024-03-23T10:02:34;9.57;;;3.33;;
13202;SDS011;6666;51.626;7.530;2024-03-23T10:05:00;7.45;;;2.85;;
13202;SDS011;6666;51.626;7.530;2024-03-23T10:07:29;13.50;;;3.40;;
13202;SDS011;6666;51.626;7.530;2024-03-23T10:09:56;7.57;;;2.85;;
13202;SDS011;6666;51.626;7.530;2024-03-23T10:12:23;8.03;;;3.00;;
13202;SDS011;6666;51.626;7.530;2024-03-23T10:14:50;11.23;;;3.35;;
13202;SDS011;6666;51.626;7.530;2024-03-23T10:17:18;8.75;;;2.58;;
13202;SDS011;6666;51.626;7.530;2024-03-23T10:19:45;6.72;;;2.38;;
13202;SDS011;6666;51.626;7.530;2024-03-23T10:22:13;6.13;;;2.38;;
13202;SDS011;6666;51.626;7.530;2024-03-23T10:24:42;7.30;;;2.40;;
13202;SDS011;6666;51.626;7.530;2024-03-23T10:27:09;8.60;;;3.05;;
13202;SDS011;6666;51.626;7.530;2024-03-23T10:29:40;8.03;;;3.00;;
13202;SDS011;6666;51.626;7.530;2024-03-23T10:32:08;14.60;;;3.00;;
13202;SDS011;6666;51.626;7.530;2024-03-23T10:34:35;8.95;;;2.00;;
13202;SDS011;6666;51.626;7.530;2024-03-23T10:37:03;9.65;;;2.60;;
13202;SDS011;6666;51.626;7.530;2024-03-23T10:39:33;9.00;;;2.47;;
13202;SDS011;6666;51.626;7.530;2024-03-23T10:42:03;8.82;;;2.25;;
13202;SDS011;6666;51.626;7.530;2024-03-23T10:44:31;7.40;;;1.90;;
13202;SDS011;6666;51.626;7.530;2024-03-23T10:46:58;7.13;;;2.20;;
13202;SDS011;6666;51.626;7.530;2024-03-23T10:49:26;7.68;;;2.42;;
13202;SDS011;6666;51.626;7.530;2024-03-23T10:51:55;10.50;;;2.57;;
13202;SDS011;6666;51.626;7.530;2024-03-23T10:54:22;9.77;;;2.50;;
13202;SDS011;6666;51.626;7.530;2024-03-23T10:56:51;5.93;;;2.00;;
13202;SDS011;6666;51.626;7.530;2024-03-23T10:59:23;25.92;;;14.57;;
13202;SDS011;6666;51.626;7.530;2024-03-23T11:01:55;17.17;;;8.45;;
13202;SDS011;6666;51.626;7.530;2024-03-23T11:04:32;8.55;;;2.28;;
13202;SDS011;6666;51.626;7.530;2024-03-23T11:07:00;8.52;;;2.13;;
13202;SDS011;6666;51.626;7.530;2024-03-23T11:09:41;8.68;;;2.50;;
13202;SDS011;6666;51.626;7.530;2024-03-23T11:12:17;5.80;;;1.90;;
13202;SDS011;6666;51.626;7.530;2024-03-23T11:14:52;10.00;;;1.80;;
13202;SDS011;6666;51.626;7.530;2024-03-23T11:17:20;6.03;;;1.90;;
13202;SDS011;6666;51.626;7.530;2024-03-23T11:19:52;7.28;;;2.00;;
13202;SDS011;6666;51.626;7.530;2024-03-23T11:22:39;5.70;;;1.92;;
13202;SDS011;6666;51.626;7.530;2024-03-23T11:25:14;6.50;;;1.77;;
13202;SDS011;6666;51.626;7.530;2024-03-23T11:27:42;7.40;;;2.45;;
13202;SDS011;6666;51.626;7.530;2024-03-23T11:30:12;5.80;;;1.50;;
13202;SDS011;6666;51.626;7.530;2024-03-23T11:32:40;4.57;;;1.20;;
13202;SDS011;6666;51.626;7.530;2024-03-23T11:35:08;4.10;;;1.60;;
13202;SDS011;6666;51.626;7.530;2024-03-23T11:37:38;3.13;;;0.90;;
13202;SDS011;6666;51.626;7.530;2024-03-23T11:42:54;1.85;;;0.90;;
13202;SDS011;6666;51.626;7.530;2024-03-23T11:45:22;2.67;;;1.20;;
13202;SDS011;6666;51.626;7.530;2024-03-23T11:48:01;2.80;;;1.10;;
13202;SDS011;6666;51.626;7.530;2024-03-23T11:50:28;5.53;;;1.15;;
13202;SDS011;6666;51.626;7.530;2024-03-23T11:53:05;3.00;;;1.30;;
13202;SDS011;6666;51.626;7.530;2024-03-23T11:55:38;4.03;;;1.30;;
13202;SDS011;6666;51.626;7.530;2024-03-23T11:58:06;3.72;;;1.20;;
13202;SDS011;6666;51.626;7.530;2024-03-23T12:00:35;3.95;;;1.15;;
13202;SDS011;6666;51.626;7.530;2024-03-23T12:03:02;2.97;;;1.20;;
13202;SDS011;6666;51.626;7.530;2024-03-23T12:05:29;3.22;;;1.25;;
13202;SDS011;6666;51.626;7.530;2024-03-23T12:10:46;3.57;;;1.60;;
13202;SDS011;6666;51.626;7.530;2024-03-23T12:13:15;5.78;;;1.55;;
13202;SDS011;6666;51.626;7.530;2024-03-23T12:15:44;4.90;;;1.52;;
13202;SDS011;6666;51.626;7.530;2024-03-23T12:18:12;3.03;;;1.70;;
13202;SDS011;6666;51.626;7.530;2024-03-23T12:20:38;5.75;;;2.08;;
13202;SDS011;6666;51.626;7.530;2024-03-23T12:23:06;8.03;;;1.53;;
13202;SDS011;6666;51.626;7.530;2024-03-23T12:25:34;4.47;;;1.70;;
13202;SDS011;6666;51.626;7.530;2024-03-23T12:28:02;5.68;;;1.90;;
13202;SDS011;6666;51.626;7.530;2024-03-23T12:30:31;6.55;;;1.70;;
13202;SDS011;6666;51.626;7.530;2024-03-23T12:33:01;5.50;;;2.00;;
13202;SDS011;6666;51.626;7.530;2024-03-23T12:35:28;8.05;;;2.00;;
13202;SDS011;6666;51.626;7.530;2024-03-23T12:37:56;7.60;;;1.98;;
13202;SDS011;6666;51.626;7.530;2024-03-23T12:40:22;6.63;;;1.90;;
13202;SDS011;6666;51.626;7.530;2024-03-23T12:42:49;12.73;;;3.10;;
13202;SDS011;6666;51.626;7.530;2024-03-23T12:45:15;5.65;;;2.10;;
13202;SDS011;6666;51.626;7.530;2024-03-23T12:47:44;7.32;;;2.35;;
13202;SDS011;6666;51.626;7.530;2024-03-23T12:50:11;7.68;;;2.60;;
13202;SDS011;6666;51.626;7.530;2024-03-23T12:52:39;6.60;;;2.90;;
13202;SDS011;6666;51.626;7.530;2024-03-23T12:55:05;7.70;;;3.08;;
13202;SDS011;6666;51.626;7.530;2024-03-23T12:57:32;8.90;;;2.70;;
13202;SDS011;6666;51.626;7.530;2024-03-23T12:59:59;8.10;;;2.70;;
13202;SDS011;6666;51.626;7.530;2024-03-23T13:02:26;6.75;;;3.00;;
13202;SDS011;6666;51.626;7.530;2024-03-23T13:04:53;7.10;;;3.40;;
13202;SDS011;6666;51.626;7.530;2024-03-23T13:07:22;5.80;;;2.53;;
13202;SDS011;6666;51.626;7.530;2024-03-23T13:09:50;4.80;;;2.08;;
13202;SDS011;6666;51.626;7.530;2024-03-23T13:12:17;8.57;;;2.00;;
13202;SDS011;6666;51.626;7.530;2024-03-23T13:14:44;6.20;;;2.00;;
13202;SDS011;6666;51.626;7.530;2024-03-23T13:17:12;7.88;;;1.75;;
13202;SDS011;6666;51.626;7.530;2024-03-23T13:19:38;5.45;;;2.10;;
13202;SDS011;6666;51.626;7.530;2024-03-23T13:22:06;9.90;;;2.07;;
13202;SDS011;6666;51.626;7.530;2024-03-23T13:24:33;4.60;;;1.50;;
13202;SDS011;6666;51.626;7.530;2024-03-23T13:27:01;8.80;;;2.08;;
13202;SDS011;6666;51.626;7.530;2024-03-23T13:29:27;4.32;;;1.52;;
13202;SDS011;6666;51.626;7.530;2024-03-23T13:31:55;8.23;;;2.10;;
13202;SDS011;6666;51.626;7.530;2024-03-23T13:34:21;6.78;;;1.75;;
13202;SDS011;6666;51.626;7.530;2024-03-23T13:36:48;7.10;;;2.03;;
13202;SDS011;6666;51.626;7.530;2024-03-23T13:39:14;9.20;;;2.40;;
13202;SDS011;6666;51.626;7.530;2024-03-23T13:41:44;8.70;;;2.00;;
13202;SDS011;6666;51.626;7.530;2024-03-23T13:44:11;11.20;;;2.57;;
13202;SDS011;6666;51.626;7.530;2024-03-23T13:46:40;13.90;;;2.10;;
13202;SDS011;6666;51.626;7.530;2024-03-23T13:49:08;5.53;;;2.10;;
13202;SDS011;6666;51.626;7.530;2024-03-23T13:51:50;5.82;;;2.30;;
13202;SDS011;6666;51.626;7.530;2024-03-23T13:54:16;3.28;;;2.03;;
13202;SDS011;6666;51.626;7.530;2024-03-23T13:56:45;6.77;;;2.60;;
13202;SDS011;6666;51.626;7.530;2024-03-23T13:59:11;4.80;;;1.75;;
13202;SDS011;6666;51.626;7.530;2024-03-23T14:01:38;4.13;;;1.95;;
13202;SDS011;6666;51.626;7.530;2024-03-23T14:04:04;4.30;;;1.90;;
13202;SDS011;6666;51.626;7.530;2024-03-23T14:06:31;3.90;;;1.90;;
13202;SDS011;6666;51.626;7.530;2024-03-23T14:08:58;2.80;;;1.90;;
13202;SDS011;6666;51.626;7.530;2024-03-23T14:11:25;3.30;;;2.15;;
13202;SDS011;6666;51.626;7.530;2024-03-23T14:13:53;4.72;;;1.60;;
13202;SDS011;6666;51.626;7.530;2024-03-23T14:16:20;3.17;;;1.60;;
13202;SDS011;6666;51.626;7.530;2024-03-23T14:18:46;5.22;;;1.80;;
13202;SDS011;6666;51.626;7.530;2024-03-23T14:21:13;3.80;;;1.75;;
13202;SDS011;6666;51.626;7.530;2024-03-23T14:23:40;4.37;;;1.50;;
13202;SDS011;6666;51.626;7.530;2024-03-23T14:26:07;2.73;;;1.50;;
13202;SDS011;6666;51.626;7.530;2024-03-23T14:28:34;3.60;;;1.63;;
13202;SDS011;6666;51.626;7.530;2024-03-23T14:31:02;5.70;;;1.88;;
13202;SDS011;6666;51.626;7.530;2024-03-23T14:33:35;5.22;;;1.73;;
13202;SDS011;6666;51.626;7.530;2024-03-23T14:36:03;6.70;;;2.22;;
13202;SDS011;6666;51.626;7.530;2024-03-23T14:38:30;5.35;;;1.73;;
13202;SDS011;6666;51.626;7.530;2024-03-23T14:40:57;3.63;;;1.80;;
13202;SDS011;6666;51.626;7.530;2024-03-23T14:43:24;3.85;;;2.10;;
13202;SDS011;6666;51.626;7.530;2024-03-23T14:46:08;4.22;;;2.30;;
13202;SDS011;6666;51.626;7.530;2024-03-23T14:48:36;5.77;;;2.60;;
13202;SDS011;6666;51.626;7.530;2024-03-23T14:51:03;3.47;;;1.80;;
13202;SDS011;6666;51.626;7.530;2024-03-23T14:53:31;4.90;;;2.00;;
13202;SDS011;6666;51.626;7.530;2024-03-23T14:55:58;6.28;;;2.15;;
13202;SDS011;6666;51.626;7.530;2024-03-23T14:58:26;6.78;;;2.03;;
13202;SDS011;6666;51.626;7.530;2024-03-23T15:00:53;12.23;;;2.88;;
13202;SDS011;6666;51.626;7.530;2024-03-23T15:03:26;6.90;;;2.50;;
13202;SDS011;6666;51.626;7.530;2024-03-23T15:05:54;3.90;;;1.90;;
13202;SDS011;6666;51.626;7.530;2024-03-23T15:08:21;3.57;;;2.37;;
13202;SDS011;6666;51.626;7.530;2024-03-23T15:10:49;7.65;;;2.40;;
13202;SDS011;6666;51.626;7.530;2024-03-23T15:13:15;8.10;;;2.17;;
13202;SDS011;6666;51.626;7.530;2024-03-23T15:15:42;6.30;;;2.00;;
13202;SDS011;6666;51.626;7.530;2024-03-23T15:18:10;7.40;;;2.17;;
13202;SDS011;6666;51.626;7.530;2024-03-23T15:20:41;5.90;;;1.92;;
13202;SDS011;6666;51.626;7.530;2024-03-23T15:23:16;7.32;;;1.90;;
13202;SDS011;6666;51.626;7.530;2024-03-23T15:25:43;4.80;;;1.88;;
13202;SDS011;6666;51.626;7.530;2024-03-23T15:28:10;8.27;;;1.85;;
13202;SDS011;6666;51.626;7.530;2024-03-23T15:30:37;6.27;;;1.50;;
13202;SDS011;6666;51.626;7.530;2024-03-23T15:33:03;7.13;;;2.00;;
13202;SDS011;6666;51.626;7.530;2024-03-23T15:35:30;4.83;;;2.07;;
13202;SDS011;6666;51.626;7.530;2024-03-23T15:37:58;5.15;;;1.92;;
13202;SDS011;6666;51.626;7.530;2024-03-23T15:40:27;6.00;;;1.70;;
13202;SDS011;6666;51.626;7.530;2024-03-23T15:42:53;3.58;;;1.90;;
13202;SDS011;6666;51.626;7.530;2024-03-23T15:45:20;8.13;;;1.70;;
13202;SDS011;6666;51.626;7.530;2024-03-23T15:47:47;5.88;;;1.75;;
13202;SDS011;6666;51.626;7.530;2024-03-23T15:50:14;4.80;;;1.50;;
13202;SDS011;6666;51.626;7.530;2024-03-23T15:52:41;7.88;;;1.63;;
13202;SDS011;6666;51.626;7.530;2024-03-23T15:55:09;4.00;;;1.50;;